createdAt,value
2023-04-16T00:00:29.578Z,74.97
2023-04-16T00:02:56.874Z,76.25
2023-04-16T00:05:24.261Z,74.15
2023-04-16T00:07:51.848Z,69.03
2023-04-16T00:10:19.084Z,75.38
2023-04-16T00:12:46.237Z,69.28
2023-04-16T00:15:13.511Z,72.28
2023-04-16T00:17:40.717Z,70.75
2023-04-16T00:20:09.197Z,72.03
2023-04-16T00:22:36.400Z,70.88
2023-04-16T00:25:03.957Z,69.75
2023-04-16T00:27:31.143Z,69.53
2023-04-16T00:29:58.284Z,71.13
2023-04-16T00:32:25.436Z,73.68
2023-04-16T00:34:52.620Z,73.10
2023-04-16T00:37:19.865Z,73.55
2023-04-16T00:39:47.013Z,70.57
2023-04-16T00:42:14.188Z,69.22
2023-04-16T00:44:41.347Z,64.13
2023-04-16T00:47:09.525Z,69.47
2023-04-16T00:49:36.890Z,75.35
2023-04-16T00:52:04.454Z,68.28
2023-04-16T00:54:32.094Z,64.53
2023-04-16T00:57:00.053Z,63.17
2023-04-16T00:59:28.835Z,68.50
2023-04-16T01:01:56.072Z,65.95
2023-04-16T01:04:23.623Z,72.00
2023-04-16T01:06:51.190Z,73.72
2023-04-16T01:09:18.457Z,74.38
2023-04-16T01:11:45.733Z,72.10
2023-04-16T01:14:13.444Z,71.90
2023-04-16T01:16:40.694Z,69.70
2023-04-16T01:19:08.324Z,72.07
2023-04-16T01:21:35.773Z,67.43
2023-04-16T01:24:06.324Z,68.30
2023-04-16T01:26:33.477Z,73.20
2023-04-16T01:29:00.629Z,68.10
2023-04-16T01:31:27.847Z,70.72
2023-04-16T01:33:55.031Z,71.75
2023-04-16T01:36:22.185Z,73.72
2023-04-16T01:38:49.736Z,69.75
2023-04-16T01:41:16.947Z,69.50
2023-04-16T01:43:44.102Z,66.75
2023-04-16T01:46:20.338Z,65.47
2023-04-16T01:48:48.504Z,63.00
2023-04-16T01:51:15.704Z,65.47
2023-04-16T01:53:42.891Z,63.47
2023-04-16T01:56:10.173Z,64.82
2023-04-16T01:58:37.364Z,66.07
2023-04-16T02:01:05.851Z,72.20
2023-04-16T02:03:33.377Z,65.45
2023-04-16T02:06:01.709Z,71.38
2023-04-16T02:08:29.100Z,69.53
2023-04-16T02:10:57.385Z,69.75
2023-04-16T02:13:26.034Z,70.22
2023-04-16T02:15:53.464Z,67.10
2023-04-16T02:18:20.623Z,71.57
2023-04-16T02:20:49.554Z,68.95
2023-04-16T02:23:16.774Z,68.65
2023-04-16T02:25:47.290Z,73.95
2023-04-16T02:28:16.881Z,74.25
2023-04-16T02:30:44.370Z,78.25
2023-04-16T02:33:12.634Z,75.07
2023-04-16T02:35:41.178Z,78.07
2023-04-16T02:38:09.016Z,71.68
2023-04-16T02:40:36.547Z,69.18
2023-04-16T02:43:03.766Z,73.57
2023-04-16T02:45:31.634Z,73.63
2023-04-16T02:50:27.032Z,73.00
2023-04-16T02:52:54.272Z,75.85
2023-04-16T02:55:21.524Z,71.72
2023-04-16T02:57:48.767Z,64.35
2023-04-16T03:00:16.015Z,66.68
2023-04-16T03:02:43.310Z,73.43
2023-04-16T03:05:11.711Z,69.15
2023-04-16T03:07:40.607Z,72.47
2023-04-16T03:10:08.980Z,73.97
2023-04-16T03:12:36.340Z,72.90
2023-04-16T03:15:03.903Z,74.53
2023-04-16T03:17:31.094Z,67.57
2023-04-16T03:19:58.681Z,73.22
2023-04-16T03:22:26.070Z,70.97
2023-04-16T03:24:53.318Z,70.35
2023-04-16T03:27:20.475Z,65.75
2023-04-16T03:29:47.707Z,68.57
2023-04-16T03:32:14.909Z,68.60
2023-04-16T03:34:42.049Z,71.10
2023-04-16T03:37:11.953Z,65.15
2023-04-16T03:39:39.401Z,68.38
2023-04-16T03:42:06.585Z,62.67
2023-04-16T03:44:33.958Z,65.60
2023-04-16T03:47:01.422Z,64.63
2023-04-16T03:49:28.550Z,64.85
2023-04-16T03:51:55.851Z,60.33
2023-04-16T03:54:23.192Z,68.45
2023-04-16T03:56:52.000Z,65.70
2023-04-16T03:59:19.185Z,62.55
2023-04-16T04:01:46.577Z,64.55
2023-04-16T04:04:13.996Z,66.10
2023-04-16T04:06:41.449Z,64.55
2023-04-16T04:09:08.970Z,68.28
2023-04-16T04:11:36.375Z,64.03
2023-04-16T04:14:05.336Z,65.35
2023-04-16T04:16:32.991Z,66.93
2023-04-16T04:19:00.526Z,61.25
2023-04-16T04:21:29.051Z,69.63
2023-04-16T04:23:56.415Z,73.90
2023-04-16T04:26:23.691Z,66.15
2023-04-16T04:28:50.942Z,65.65
2023-04-16T04:31:18.157Z,62.92
2023-04-16T04:33:45.386Z,70.75
2023-04-16T04:36:12.574Z,70.15
2023-04-16T04:38:40.111Z,77.63
2023-04-16T04:41:07.295Z,64.20
2023-04-16T04:43:34.568Z,69.00
2023-04-16T04:46:01.861Z,67.15
2023-04-16T04:48:29.153Z,71.85
2023-04-16T04:50:56.389Z,70.68
2023-04-16T04:53:23.599Z,75.57
2023-04-16T04:55:53.972Z,64.47
2023-04-16T04:58:24.348Z,65.95
2023-04-16T05:00:51.595Z,63.97
2023-04-16T05:03:22.143Z,68.90
2023-04-16T05:05:49.415Z,64.35
2023-04-16T05:08:16.605Z,69.10
2023-04-16T05:10:43.837Z,66.55
2023-04-16T05:13:11.135Z,63.10
2023-04-16T05:15:40.526Z,70.32
2023-04-16T05:18:07.679Z,64.18
2023-04-16T05:20:34.888Z,65.60
2023-04-16T05:23:02.080Z,62.28
2023-04-16T05:25:29.333Z,63.47
2023-04-16T05:27:56.562Z,69.45
2023-04-16T05:30:23.839Z,66.25
2023-04-16T05:32:51.658Z,71.90
2023-04-16T05:35:18.980Z,77.60
2023-04-16T05:37:46.210Z,67.85
2023-04-16T05:40:14.608Z,67.88
2023-04-16T05:42:41.901Z,61.30
2023-04-16T05:45:09.675Z,64.82
2023-04-16T05:47:37.547Z,70.35
2023-04-16T05:50:05.525Z,67.13
2023-04-16T05:52:32.760Z,62.42
2023-04-16T05:55:01.802Z,60.17
2023-04-16T05:57:30.646Z,62.50
2023-04-16T05:59:57.879Z,66.38
2023-04-16T06:02:25.349Z,63.95
2023-04-16T06:04:52.692Z,65.28
2023-04-16T06:07:19.860Z,64.72
2023-04-16T06:09:47.055Z,62.10
2023-04-16T06:12:14.265Z,62.50
2023-04-16T06:14:41.428Z,60.05
2023-04-16T06:17:08.628Z,57.95
2023-04-16T06:19:36.232Z,62.80
2023-04-16T06:22:04.587Z,59.58
2023-04-16T06:24:32.147Z,58.08
2023-04-16T06:26:59.339Z,56.58
2023-04-16T06:29:36.997Z,55.60
2023-04-16T06:32:08.267Z,62.58
2023-04-16T06:34:35.903Z,59.38
2023-04-16T06:37:03.161Z,57.42
2023-04-16T06:39:30.884Z,58.67
2023-04-16T06:41:58.202Z,55.50
2023-04-16T06:44:25.689Z,54.72
2023-04-16T06:46:53.429Z,57.53
2023-04-16T06:49:21.583Z,53.78
2023-04-16T06:51:48.787Z,52.15
2023-04-16T06:54:16.720Z,52.85
2023-04-16T06:56:43.948Z,54.17
2023-04-16T06:59:17.644Z,54.65
2023-04-16T07:01:44.975Z,51.92
2023-04-16T07:04:12.301Z,55.13
2023-04-16T07:06:39.513Z,54.45
2023-04-16T07:09:06.691Z,54.25
2023-04-16T07:11:34.358Z,52.08
2023-04-16T07:14:01.652Z,52.60
2023-04-16T07:16:28.882Z,54.45
2023-04-16T07:18:56.048Z,55.00
2023-04-16T07:21:23.273Z,57.78
2023-04-16T07:23:50.497Z,53.00
2023-04-16T07:26:17.697Z,50.60
2023-04-16T07:28:44.866Z,54.20
2023-04-16T07:31:12.145Z,54.90
2023-04-16T07:33:39.885Z,50.83
2023-04-16T07:36:07.370Z,54.75
2023-04-16T07:38:34.646Z,60.90
2023-04-16T07:41:02.277Z,51.33
2023-04-16T07:43:29.535Z,55.15
2023-04-16T07:45:57.653Z,56.65
2023-04-16T07:48:25.267Z,52.80
2023-04-16T07:50:53.045Z,58.38
2023-04-16T07:53:20.534Z,54.72
2023-04-16T07:55:47.895Z,57.47
2023-04-16T07:58:15.083Z,51.97
2023-04-16T08:00:43.721Z,53.47
2023-04-16T08:03:11.374Z,59.08
2023-04-16T08:05:38.736Z,58.92
2023-04-16T08:08:06.188Z,55.72
2023-04-16T08:10:33.753Z,54.50
2023-04-16T08:13:02.007Z,50.67
2023-04-16T08:15:29.522Z,56.17
2023-04-16T08:17:56.965Z,61.10
2023-04-16T08:20:24.375Z,54.13
2023-04-16T08:22:54.843Z,61.22
2023-04-16T08:25:24.632Z,60.67
2023-04-16T08:27:51.878Z,53.53
2023-04-16T08:30:19.126Z,54.25
2023-04-16T08:32:49.360Z,60.72
2023-04-16T08:35:17.418Z,56.20
2023-04-16T08:37:44.611Z,58.10
2023-04-16T08:40:12.347Z,59.40
2023-04-16T08:42:46.094Z,64.82
2023-04-16T08:45:17.998Z,59.40
2023-04-16T08:47:51.713Z,53.92
2023-04-16T08:50:26.736Z,51.53
2023-04-16T08:53:04.511Z,51.70
2023-04-16T08:55:41.209Z,52.65
2023-04-16T08:58:23.818Z,49.75
2023-04-16T09:00:51.437Z,50.03
2023-04-16T09:03:21.576Z,46.30
2023-04-16T09:05:50.368Z,46.60
2023-04-16T09:08:18.115Z,46.05
2023-04-16T09:10:45.839Z,49.92
2023-04-16T09:13:15.780Z,46.88
2023-04-16T09:15:44.263Z,42.58
2023-04-16T09:18:12.186Z,45.17
2023-04-16T09:20:39.720Z,44.55
2023-04-16T09:23:06.898Z,47.85
2023-04-16T09:25:34.979Z,47.90
2023-04-16T09:28:02.218Z,45.35
2023-04-16T09:30:29.346Z,46.35
2023-04-16T09:33:22.155Z,51.35
2023-04-16T09:35:52.688Z,50.00
2023-04-16T09:38:20.620Z,47.17
2023-04-16T09:40:47.990Z,55.67
2023-04-16T09:43:19.099Z,50.25
2023-04-16T09:45:54.762Z,50.72
2023-04-16T09:48:33.922Z,52.35
2023-04-16T09:51:08.685Z,52.75
2023-04-16T09:53:36.008Z,50.30
2023-04-16T09:56:06.876Z,53.55
2023-04-16T09:58:36.522Z,51.78
2023-04-16T10:01:12.769Z,53.08
2023-04-16T10:03:40.993Z,55.72
2023-04-16T10:06:19.716Z,55.00
2023-04-16T10:08:51.010Z,56.45
2023-04-16T10:11:19.902Z,59.17
2023-04-16T10:13:47.069Z,55.03
2023-04-16T10:16:14.487Z,51.45
2023-04-16T10:18:45.405Z,44.80
2023-04-16T10:21:12.914Z,50.70
2023-04-16T10:23:40.383Z,54.08
2023-04-16T10:26:08.299Z,56.30
2023-04-16T10:28:36.853Z,55.20
2023-04-16T10:31:08.071Z,47.15
2023-04-16T10:33:40.164Z,51.97
2023-04-16T10:36:13.387Z,51.03
2023-04-16T10:38:46.176Z,50.45
2023-04-16T10:41:13.941Z,52.80
2023-04-16T10:43:45.483Z,45.22
2023-04-16T10:46:27.002Z,54.47
2023-04-16T10:48:56.708Z,49.42
2023-04-16T10:51:34.926Z,50.67
2023-04-16T10:54:16.924Z,46.47
2023-04-16T10:56:46.300Z,47.10
2023-04-16T10:59:18.085Z,41.75
2023-04-16T11:01:55.727Z,46.45
2023-04-16T11:04:25.751Z,52.35
2023-04-16T11:07:11.068Z,46.08
2023-04-16T11:09:48.142Z,48.40
2023-04-16T11:12:21.002Z,43.30
2023-04-16T11:14:54.309Z,44.00
2023-04-16T11:17:22.353Z,44.13
2023-04-16T11:19:50.526Z,48.03
2023-04-16T11:22:21.173Z,40.90
2023-04-16T11:24:55.741Z,41.40
2023-04-16T11:27:24.386Z,46.05
2023-04-16T11:30:02.391Z,44.20
2023-04-16T11:32:33.274Z,44.60
2023-04-16T11:35:04.495Z,45.50
2023-04-16T11:37:37.476Z,45.35
2023-04-16T11:42:40.641Z,47.72
2023-04-16T11:45:10.093Z,43.38
2023-04-16T11:47:51.763Z,37.63
2023-04-16T11:50:28.210Z,41.30
2023-04-16T11:53:03.525Z,35.67
2023-04-16T11:55:31.078Z,38.25
2023-04-16T11:58:13.041Z,38.88
2023-04-16T12:00:41.548Z,37.40
2023-04-16T12:03:08.930Z,37.28
2023-04-16T12:05:40.745Z,36.30
2023-04-16T12:08:10.526Z,38.63
2023-04-16T12:10:56.467Z,32.97
2023-04-16T12:13:23.603Z,34.58
2023-04-16T12:15:52.795Z,31.95
2023-04-16T12:18:27.022Z,34.17
2023-04-16T12:20:54.412Z,33.60
2023-04-16T12:23:33.773Z,37.88
2023-04-16T12:26:10.559Z,30.15
2023-04-16T12:28:39.252Z,27.40
2023-04-16T12:31:07.162Z,29.38
2023-04-16T12:33:34.397Z,29.02
2023-04-16T12:36:03.474Z,28.80
2023-04-16T12:38:30.911Z,25.88
2023-04-16T12:40:58.628Z,28.48
2023-04-16T12:43:26.167Z,31.45
2023-04-16T12:45:53.484Z,30.38
2023-04-16T12:48:20.740Z,27.85
2023-04-16T12:50:48.069Z,29.13
2023-04-16T12:53:15.223Z,24.58
2023-04-16T12:55:42.452Z,28.58
2023-04-16T12:58:11.855Z,29.48
2023-04-16T13:00:40.392Z,28.80
2023-04-16T13:03:07.865Z,29.08
2023-04-16T13:05:35.357Z,28.17
2023-04-16T13:08:02.523Z,26.30
2023-04-16T13:10:30.040Z,26.40
2023-04-16T13:12:57.330Z,26.15
2023-04-16T13:15:24.502Z,26.42
2023-04-16T13:17:51.738Z,26.35
2023-04-16T13:20:18.917Z,22.95
2023-04-16T13:22:46.286Z,27.27
2023-04-16T13:25:13.623Z,24.92
2023-04-16T13:27:40.858Z,22.73
2023-04-16T13:30:08.523Z,21.13
2023-04-16T13:32:35.950Z,69.03
2023-04-16T13:35:03.348Z,50.55
2023-04-16T13:37:30.561Z,23.15
2023-04-16T13:39:57.716Z,19.23
2023-04-16T13:42:24.906Z,32.95
2023-04-16T13:44:54.138Z,24.67
2023-04-16T13:47:21.723Z,18.98
2023-04-16T13:49:49.305Z,15.85
2023-04-16T13:52:16.786Z,18.25
2023-04-16T13:54:43.909Z,18.23
2023-04-16T13:57:12.546Z,16.83
2023-04-16T13:59:39.722Z,22.60
2023-04-16T14:02:07.897Z,22.10
2023-04-16T14:04:35.070Z,24.17
2023-04-16T14:07:03.400Z,31.83
2023-04-16T14:09:30.731Z,30.35
2023-04-16T14:11:57.898Z,20.60
2023-04-16T14:14:25.854Z,17.42
2023-04-16T14:16:55.093Z,17.08
2023-04-16T14:19:22.244Z,14.00
2023-04-16T14:21:49.374Z,16.63
2023-04-16T14:24:16.512Z,14.30
2023-04-16T14:26:44.239Z,13.85
2023-04-16T14:29:11.588Z,13.73
2023-04-16T14:31:38.932Z,12.52
2023-04-16T14:34:06.330Z,13.60
2023-04-16T14:36:33.497Z,10.98
2023-04-16T14:39:00.655Z,11.50
2023-04-16T14:41:27.986Z,11.65
2023-04-16T14:43:55.217Z,13.10
2023-04-16T14:46:22.398Z,13.68
2023-04-16T14:48:49.574Z,15.02
2023-04-16T14:51:16.783Z,16.92
2023-04-16T14:53:43.969Z,14.98
2023-04-16T14:56:12.862Z,15.18
2023-04-16T14:58:40.173Z,15.35
2023-04-16T15:01:07.407Z,14.65
2023-04-16T15:03:35.036Z,14.07
2023-04-16T15:06:02.520Z,14.10
2023-04-16T15:08:29.711Z,14.18
2023-04-16T15:10:56.867Z,13.63
2023-04-16T15:13:24.039Z,15.32
2023-04-16T15:15:51.299Z,15.43
2023-04-16T15:18:18.453Z,16.23
2023-04-16T15:20:45.680Z,16.42
2023-04-16T15:23:12.848Z,14.68
2023-04-16T15:25:42.598Z,16.30
2023-04-16T15:28:09.762Z,16.67
2023-04-16T15:30:40.243Z,17.20
2023-04-16T15:33:08.774Z,18.23
2023-04-16T15:35:36.625Z,19.00
2023-04-16T15:38:03.814Z,20.95
2023-04-16T15:40:31.020Z,23.65
2023-04-16T15:42:58.211Z,20.48
2023-04-16T15:45:25.385Z,23.02
2023-04-16T15:47:52.628Z,22.13
2023-04-16T15:50:20.220Z,21.70
2023-04-16T15:52:47.739Z,23.45
2023-04-16T15:55:17.085Z,22.40
2023-04-16T15:57:44.471Z,23.55
2023-04-16T16:00:17.078Z,21.30
2023-04-16T16:02:46.816Z,22.98
2023-04-16T16:05:15.995Z,25.00
2023-04-16T16:07:43.696Z,23.85
2023-04-16T16:10:12.942Z,20.90
2023-04-16T16:12:41.244Z,21.13
2023-04-16T16:15:10.862Z,23.42
2023-04-16T16:17:38.777Z,23.27
2023-04-16T16:20:09.467Z,19.52
2023-04-16T16:22:38.177Z,22.35
2023-04-16T16:25:05.944Z,21.75
2023-04-16T16:27:33.091Z,18.92
2023-04-16T16:30:01.242Z,19.05
2023-04-16T16:32:28.513Z,18.45
2023-04-16T16:34:56.070Z,19.15
2023-04-16T16:37:23.318Z,21.08
2023-04-16T16:39:50.730Z,18.67
2023-04-16T16:42:18.837Z,17.15
2023-04-16T16:44:49.127Z,17.63
2023-04-16T16:47:16.375Z,20.08
2023-04-16T16:49:45.271Z,18.02
2023-04-16T16:52:12.492Z,18.65
2023-04-16T16:54:39.674Z,24.63
2023-04-16T16:57:07.300Z,22.13
2023-04-16T16:59:34.449Z,24.58
2023-04-16T17:02:01.661Z,20.77
2023-04-16T17:04:28.933Z,24.23
2023-04-16T17:06:56.241Z,27.13
2023-04-16T17:09:23.454Z,24.50
2023-04-16T17:11:50.730Z,25.52
2023-04-16T17:14:18.018Z,22.83
2023-04-16T17:16:49.759Z,25.13
2023-04-16T17:19:17.863Z,26.67
2023-04-16T17:21:45.041Z,27.77
2023-04-16T17:24:12.443Z,25.00
2023-04-16T17:26:41.241Z,27.85
2023-04-16T17:29:08.436Z,27.00
2023-04-16T17:31:35.850Z,26.58
2023-04-16T17:34:05.819Z,34.38
2023-04-16T17:36:33.160Z,25.08
2023-04-16T17:39:00.449Z,28.40
2023-04-16T17:41:27.603Z,30.65
2023-04-16T17:43:54.791Z,26.83
2023-04-16T17:46:21.986Z,27.05
2023-04-16T17:48:49.198Z,29.50
2023-04-16T17:51:16.503Z,30.23
2023-04-16T17:53:44.630Z,28.55
2023-04-16T17:56:13.329Z,28.75
2023-04-16T17:58:40.608Z,29.05
2023-04-16T18:01:07.892Z,28.73
2023-04-16T18:03:35.743Z,28.73
2023-04-16T18:06:03.137Z,28.77
2023-04-16T18:08:30.434Z,27.52
2023-04-16T18:10:57.700Z,28.73
2023-04-16T18:13:25.074Z,24.77
2023-04-16T18:15:53.026Z,29.55
2023-04-16T18:18:21.225Z,26.73
2023-04-16T18:20:48.421Z,24.33
2023-04-16T18:23:15.696Z,28.77
2023-04-16T18:25:43.243Z,27.42
2023-04-16T18:28:13.658Z,27.13
2023-04-16T18:30:41.402Z,26.45
2023-04-16T18:33:37.362Z,30.80
2023-04-16T18:35:55.718Z,29.95
2023-04-16T18:38:22.900Z,25.83
2023-04-16T18:40:50.204Z,28.50
2023-04-16T18:43:17.396Z,29.95
2023-04-16T18:45:44.751Z,26.73
2023-04-16T18:48:11.947Z,26.10
2023-04-16T18:50:39.110Z,26.63
2023-04-16T18:53:06.362Z,27.52
2023-04-16T18:55:33.517Z,27.00
2023-04-16T18:58:00.668Z,27.42
2023-04-16T19:00:27.943Z,26.10
2023-04-16T19:02:55.301Z,27.45
2023-04-16T19:05:22.970Z,25.55
2023-04-16T19:07:50.223Z,23.25
2023-04-16T19:10:17.551Z,26.85
2023-04-16T19:12:44.735Z,22.52
2023-04-16T19:15:12.094Z,25.52
2023-04-16T19:17:40.026Z,23.95
2023-04-16T19:20:11.148Z,26.75
2023-04-16T19:22:38.672Z,27.95
2023-04-16T19:25:07.160Z,25.25
2023-04-16T19:27:34.838Z,27.30
2023-04-16T19:30:02.886Z,24.38
2023-04-16T19:32:30.065Z,27.30
2023-04-16T19:34:57.258Z,23.42
2023-04-16T19:37:24.494Z,28.23
2023-04-16T19:39:51.665Z,24.42
2023-04-16T19:42:18.817Z,25.17
2023-04-16T19:44:46.036Z,28.65
2023-04-16T19:47:13.831Z,23.98
2023-04-16T19:49:43.508Z,23.73
2023-04-16T19:52:10.795Z,22.00
2023-04-16T19:54:38.060Z,26.10
2023-04-16T19:57:05.341Z,29.80
2023-04-16T19:59:33.090Z,27.83
2023-04-16T20:02:00.637Z,26.52
2023-04-16T20:04:28.076Z,22.95
2023-04-16T20:06:55.847Z,24.38
2023-04-16T20:09:25.258Z,26.30
2023-04-16T20:11:52.423Z,26.55
2023-04-16T20:14:19.626Z,28.92
2023-04-16T20:16:46.809Z,23.45
2023-04-16T20:19:17.045Z,26.83
2023-04-16T20:21:45.528Z,25.88
2023-04-16T20:24:12.749Z,25.75
2023-04-16T20:26:39.951Z,27.05
2023-04-16T20:29:07.120Z,25.50
2023-04-16T20:31:34.348Z,28.60
2023-04-16T20:34:01.577Z,25.67
2023-04-16T20:36:28.851Z,24.70
2023-04-16T20:38:56.302Z,22.85
2023-04-16T20:41:25.017Z,24.63
2023-04-16T20:43:52.941Z,26.38
2023-04-16T20:46:24.316Z,26.52
2023-04-16T20:48:51.803Z,24.48
2023-04-16T20:51:19.044Z,24.25
2023-04-16T20:53:46.401Z,29.58
2023-04-16T20:56:14.983Z,24.85
2023-04-16T20:58:42.668Z,28.23
2023-04-16T21:01:09.953Z,29.25
2023-04-16T21:03:37.506Z,22.88
2023-04-16T21:06:04.853Z,24.92
2023-04-16T21:08:32.062Z,25.33
2023-04-16T21:10:59.241Z,24.25
2023-04-16T21:13:26.566Z,24.75
2023-04-16T21:15:53.758Z,27.10
2023-04-16T21:18:20.987Z,28.63
2023-04-16T21:20:48.149Z,25.63
2023-04-16T21:23:16.053Z,27.00
2023-04-16T21:25:43.260Z,26.10
2023-04-16T21:28:10.468Z,29.48
2023-04-16T21:30:38.218Z,25.08
2023-04-16T21:33:05.682Z,24.17
2023-04-16T21:35:33.471Z,26.10
2023-04-16T21:38:00.652Z,29.77
2023-04-16T21:40:27.931Z,24.27
2023-04-16T21:42:55.375Z,23.42
2023-04-16T21:45:23.167Z,24.50
2023-04-16T21:47:50.662Z,23.17
2023-04-16T21:50:18.055Z,27.25
2023-04-16T21:52:46.143Z,25.05
2023-04-16T21:55:14.400Z,25.27
2023-04-16T21:57:41.647Z,27.42
2023-04-16T22:00:13.615Z,25.50
2023-04-16T22:02:42.682Z,27.47
2023-04-16T22:05:11.309Z,26.88
2023-04-16T22:07:38.575Z,27.02
2023-04-16T22:10:06.923Z,26.27
2023-04-16T22:12:37.814Z,23.35
2023-04-16T22:15:07.186Z,26.20
2023-04-16T22:17:34.735Z,25.42
2023-04-16T22:20:06.910Z,25.23
2023-04-16T22:22:34.341Z,24.03
2023-04-16T22:25:01.970Z,27.50
2023-04-16T22:27:29.346Z,26.20
2023-04-16T22:29:56.601Z,24.55
2023-04-16T22:32:23.921Z,23.92
2023-04-16T22:34:52.217Z,26.50
2023-04-16T22:37:19.372Z,29.35
2023-04-16T22:39:46.497Z,25.42
2023-04-16T22:42:13.642Z,27.77
2023-04-16T22:44:40.810Z,28.98
2023-04-16T22:47:07.974Z,28.15
2023-04-16T22:49:35.547Z,25.17
2023-04-16T22:52:03.013Z,29.80
2023-04-16T22:54:30.954Z,26.85
2023-04-16T22:56:58.671Z,28.08
2023-04-16T22:59:25.861Z,30.17
2023-04-16T23:01:53.154Z,27.45
2023-04-16T23:04:20.745Z,32.13
2023-04-16T23:06:47.940Z,29.08
2023-04-16T23:09:15.125Z,27.52
2023-04-16T23:11:42.330Z,30.27
2023-04-16T23:14:09.601Z,26.13
2023-04-16T23:16:36.772Z,33.15
2023-04-16T23:19:03.963Z,30.98
2023-04-16T23:21:32.381Z,34.15
2023-04-16T23:23:59.530Z,32.55
2023-04-16T23:26:26.730Z,27.88
2023-04-16T23:28:53.887Z,29.52
2023-04-16T23:31:21.079Z,32.08
2023-04-16T23:33:48.236Z,30.60
2023-04-16T23:36:15.649Z,34.28
2023-04-16T23:38:42.773Z,38.50
2023-04-16T23:41:09.971Z,28.45
2023-04-16T23:43:39.963Z,33.88
2023-04-16T23:46:07.502Z,30.75
2023-04-16T23:48:34.654Z,31.85
2023-04-16T23:51:01.820Z,34.20
2023-04-16T23:53:28.981Z,32.53
2023-04-16T23:55:56.131Z,33.47
2023-04-16T23:58:23.358Z,31.17
